Time;durP1;ratioP1;P1;durP2;ratioP2;P2;SDS_P1;SDS_P2;PMS_P1;PMS_P2;Temp;Humidity;BMP_temperature;BMP_pressure;BME280_temperature;BME280_humidity;BME280_pressure;Samples;Min_cycle;Max_cycle;Signal;HPM_P1;HPM_P2
2023/12/13 06:16:00;;;;;;;;;;;;;;;5.36;100.00;97851.31;4979243;28;19928;-81
2023/12/13 06:18:26;;;;;;;;;;;;;;;5.06;100.00;97853.75;4968839;28;20375;-81
2023/12/13 06:20:51;;;;;;;;;;;;;;;4.91;100.00;97857.97;4985821;28;20009;-81
2023/12/13 06:23:16;;;;;;;;;;;;;;;4.78;100.00;97864.78;4968630;28;20056;-82
2023/12/13 06:25:42;;;;;;;;;;;;;;;4.69;100.00;97860.81;4986065;28;19925;-82
2023/12/13 06:28:07;;;;;;;;;;;;;;;4.61;100.00;97858.59;4984748;28;20004;-82
2023/12/13 06:30:32;;;;;;;;;;;;;;;4.57;100.00;97859.66;4985743;28;19918;-82
2023/12/13 06:32:57;;;;;;;;;;;;;;;4.51;100.00;97852.09;4985507;28;19929;-83
2023/12/13 06:35:23;;;;;;;;;;;;;;;4.45;100.00;97855.00;4967240;28;19925;-81
2023/12/13 06:37:48;;;;;;;;;;;;;;;4.41;100.00;97853.47;4968282;28;19922;-81
2023/12/13 06:40:14;;;;;;;;;;;;;;;4.35;100.00;97855.44;4984498;28;19918;-81
2023/12/13 06:42:40;;;;;;;;;;;;;;;4.30;100.00;97851.34;4984297;28;19929;-81
2023/12/13 06:45:05;;;;;;;;;;;;;;;4.25;100.00;97861.22;4968614;28;19969;-80
2023/12/13 06:47:31;;;;;;;;;;;;;;;4.22;100.00;97861.38;4968128;28;19944;-81
2023/12/13 06:49:56;;;;;;;;;;;;;;;4.10;100.00;97863.66;4985365;28;19925;-81
2023/12/13 06:52:21;;;;;;;;;;;;;;;4.12;100.00;97867.03;4985419;28;19957;-90
2023/12/13 06:54:46;;;;;;;;;;;;;;;4.08;100.00;97857.63;4985119;28;19922;-82
2023/12/13 06:57:13;;;;;;;;;;;;;;;4.02;100.00;97859.69;4984253;28;19917;-82
2023/12/13 06:59:38;;;;;;;;;;;;;;;4.09;100.00;97867.19;4985687;28;20377;-81
2023/12/13 07:02:04;;;;;;;;;;;;;;;3.99;100.00;97868.56;4985171;28;19925;-82
2023/12/13 07:04:31;;;;;;;;;;;;;;;4.69;100.00;97868.69;4985120;28;20349;-81
2023/12/13 07:06:58;;;;;;;;;;;;;;;5.35;100.00;97865.34;4984259;28;19918;-81
2023/12/13 07:09:23;;;;;;;;;;;;;;;5.66;100.00;97873.41;4985077;28;19918;-82
2023/12/13 07:11:51;;;;;;;;;;;;;;;5.89;100.00;97874.78;4985033;28;19922;-82
2023/12/13 07:14:17;;;;;;;;;;;;;;;6.06;100.00;97871.25;4982430;28;20285;-83
2023/12/13 07:16:42;;;;;;;;;;;;;;;6.21;100.00;97880.06;4967592;28;19918;-83
2023/12/13 07:19:08;;;;;;;;;;;;;;;6.31;100.00;97871.59;4985326;28;19941;-82
2023/12/13 07:21:33;;;;;;;;;;;;;;;6.44;100.00;97881.44;4984893;28;19918;-85
2023/12/13 07:23:59;;;;;;;;;;;;;;;6.55;100.00;97885.16;4984570;28;19945;-84
2023/12/13 07:26:24;;;;;;;;;;;;;;;6.67;100.00;97883.63;4984901;28;19929;-85
2023/12/13 07:28:49;;;;;;;;;;;;;;;6.76;100.00;97884.03;4983795;28;19928;-82
2023/12/13 07:31:14;;;;;;;;;;;;;;;6.87;100.00;97886.88;4985010;28;19918;-85
2023/12/13 07:33:40;;;;;;;;;;;;;;;6.95;100.00;97884.66;4967063;28;20285;-84
2023/12/13 07:36:06;;;;;;;;;;;;;;;7.00;100.00;97877.31;4967593;28;20261;-84
2023/12/13 07:38:31;;;;;;;;;;;;;;;7.05;100.00;97872.66;4984894;28;19929;-84
2023/12/13 07:40:56;;;;;;;;;;;;;;;7.09;100.00;97866.25;4984856;28;19918;-86
2023/12/13 07:43:22;;;;;;;;;;;;;;;7.17;100.00;97873.69;4983470;28;19918;-83
2023/12/13 07:45:52;;;;;;;;;;;;;;;7.24;100.00;97874.19;4967145;28;19924;-82
2023/12/13 07:48:22;;;;;;;;;;;;;;;7.32;100.00;97871.09;4984685;28;19917;-82
2023/12/13 07:50:48;;;;;;;;;;;;;;;7.37;100.00;97869.03;4984305;28;19925;-82
2023/12/13 07:53:13;;;;;;;;;;;;;;;7.39;100.00;97873.28;4984205;28;19922;-80
2023/12/13 07:55:38;;;;;;;;;;;;;;;7.43;100.00;97869.50;4984663;28;19924;-82
2023/12/13 07:58:03;;;;;;;;;;;;;;;7.47;100.00;97878.09;4965709;28;19918;-83
2023/12/13 08:00:29;;;;;;;;;;;;;;;7.52;100.00;97880.44;4966788;28;20381;-82
2023/12/13 08:02:54;;;;;;;;;;;;;;;7.55;100.00;97883.72;4966260;28;19945;-82
2023/12/13 08:05:20;;;;;;;;;;;;;;;7.61;100.00;97883.38;4984566;28;19918;-82
2023/12/13 08:07:46;;;;;;;;;;;;;;;7.61;100.00;97887.75;4984235;28;19922;-81
2023/12/13 08:10:11;;;;;;;;;;;;;;;7.66;100.00;97891.00;4966507;28;19918;-79
2023/12/13 08:12:36;;;;;;;;;;;;;;;7.69;100.00;97884.66;4982430;28;20360;-81
2023/12/13 08:15:02;;;;;;;;;;;;;;;7.73;100.00;97894.94;4966760;28;19926;-81
2023/12/13 08:17:29;;;;;;;;;;;;;;;7.75;100.00;97892.19;4983855;28;19922;-79
2023/12/13 08:19:54;;;;;;;;;;;;;;;7.80;100.00;97880.44;4983840;28;20012;-80
2023/12/13 09:01:07;;;;;;;;;;;;;;;4.43;100.00;97904.06;5425122;23;19929;-87
2023/12/13 09:03:32;;;;;;;;;;;;;;;4.40;100.00;97896.34;4983193;28;20391;-84
2023/12/13 09:05:57;;;;;;;;;;;;;;;4.37;100.00;97897.31;4983277;28;20399;-83
2023/12/13 09:08:23;;;;;;;;;;;;;;;4.27;100.00;97898.69;4983051;28;19918;-83
2023/12/13 09:10:48;;;;;;;;;;;;;;;9.14;100.00;97909.78;4982776;28;19925;-89
2023/12/13 09:13:13;;;;;;;;;;;;;;;9.56;100.00;97907.84;4964935;28;19986;-87
2023/12/13 09:15:39;;;;;;;;;;;;;;;12.51;100.00;97893.03;4980437;28;19918;-83
2023/12/13 09:18:04;;;;;;;;;;;;;;;14.67;100.00;97852.56;4982369;28;20391;-85
2023/12/13 09:20:29;;;;;;;;;;;;;;;14.68;100.00;97849.78;4983269;28;19993;-84
2023/12/13 09:22:54;;;;;;;;;;;;;;;15.39;100.00;97847.78;4965254;28;20270;-82
2023/12/13 09:25:20;;;;;;;;;;;;;;;15.46;100.00;97848.03;4965852;28;19953;-82
2023/12/13 09:27:46;;;;;;;;;;;;;;;16.19;100.00;97850.06;4965121;28;19918;-86
2023/12/13 09:30:13;;;;;;;;;;;;;;;15.74;100.00;97847.09;4963993;28;19917;-83
2023/12/13 09:32:42;;;;;;;;;;;;;;;9.65;100.00;97888.69;4965670;28;19929;-83
2023/12/13 09:35:07;;;;;;;;;;;;;;;7.93;100.00;97906.03;4982592;28;19972;-81
2023/12/13 09:37:32;;;;;;;;;;;;;;;7.24;100.00;97906.66;4982832;28;19953;-84
2023/12/13 09:39:59;;;;;;;;;;;;;;;6.84;100.00;97906.31;4983346;28;19925;-83
2023/12/13 09:42:25;;;;;;;;;;;;;;;6.51;100.00;97906.47;4965363;28;20377;-82
2023/12/13 09:44:52;;;;;;;;;;;;;;;6.23;100.00;97910.63;4981522;28;20233;-83
2023/12/13 09:47:19;;;;;;;;;;;;;;;6.09;100.00;97913.16;4964257;28;19926;-89
2023/12/13 09:49:47;;;;;;;;;;;;;;;5.90;100.00;97927.25;4982725;28;19918;-82
2023/12/13 09:52:16;;;;;;;;;;;;;;;5.77;100.00;97926.22;4982275;28;19925;-88
2023/12/13 09:54:41;;;;;;;;;;;;;;;5.64;100.00;97928.66;4980324;28;20304;-83
2023/12/13 09:57:07;;;;;;;;;;;;;;;5.54;100.00;97932.69;4982709;28;19918;-87
2023/12/13 09:59:32;;;;;;;;;;;;;;;5.41;100.00;97928.06;4982326;28;20352;-84
2023/12/13 10:01:58;;;;;;;;;;;;;;;5.29;100.00;97933.94;4981894;28;20001;-88
2023/12/13 10:04:26;;;;;;;;;;;;;;;5.20;100.00;97935.28;4966816;28;20381;-88
2023/12/13 10:06:51;;;;;;;;;;;;;;;5.17;100.00;97934.56;4981804;28;19925;-86
2023/12/13 10:09:16;;;;;;;;;;;;;;;5.07;100.00;97932.41;4965127;28;19917;-83
2023/12/13 10:11:42;;;;;;;;;;;;;;;5.04;100.00;97929.06;4965463;28;19921;-83
2023/12/13 10:14:07;;;;;;;;;;;;;;;5.00;100.00;97935.41;4964739;28;19941;-82
2023/12/13 10:16:37;;;;;;;;;;;;;;;4.95;100.00;97934.81;4981415;28;19924;-88
2023/12/13 10:19:03;;;;;;;;;;;;;;;4.91;100.00;97934.94;4981686;28;19969;-87
2023/12/13 10:21:28;;;;;;;;;;;;;;;4.80;100.00;97931.97;4965137;28;19921;-83
2023/12/13 10:23:53;;;;;;;;;;;;;;;4.83;100.00;97934.44;4982534;28;20329;-83
2023/12/13 10:26:19;;;;;;;;;;;;;;;4.77;100.00;97933.91;4985530;28;20462;-82
2023/12/13 10:28:45;;;;;;;;;;;;;;;4.73;100.00;97927.97;4985825;28;19918;-86
2023/12/13 10:31:11;;;;;;;;;;;;;;;4.76;100.00;97924.34;4966115;28;20365;-86
2023/12/13 10:33:36;;;;;;;;;;;;;;;4.73;100.00;97923.56;4985942;28;19977;-88
2023/12/13 10:36:03;;;;;;;;;;;;;;;4.69;100.00;97931.66;4984963;28;19922;-83
2023/12/13 10:38:31;;;;;;;;;;;;;;;4.62;100.00;97928.47;4985566;28;19968;-80
2023/12/13 10:40:57;;;;;;;;;;;;;;;4.58;100.00;97931.31;4985454;28;19918;-83
2023/12/13 10:43:24;;;;;;;;;;;;;;;4.57;100.00;97930.47;4982664;28;19914;-84
2023/12/13 10:46:00;;;;;;;;;;;;;;;4.57;100.00;97925.25;4983045;28;20382;-82
2023/12/13 10:48:30;;;;;;;;;;;;;;;4.62;100.00;97917.16;4984759;28;19936;-85
2023/12/13 10:50:56;;;;;;;;;;;;;;;4.56;100.00;97915.66;4985033;28;19925;-83
2023/12/13 10:53:22;;;;;;;;;;;;;;;4.58;100.00;97916.47;4968175;28;19918;-85
2023/12/13 10:55:48;;;;;;;;;;;;;;;4.60;100.00;97911.13;4985634;28;19922;-83
2023/12/13 10:58:13;;;;;;;;;;;;;;;4.57;100.00;97899.00;4967801;28;19925;-84
2023/12/13 11:00:41;;;;;;;;;;;;;;;4.62;100.00;97901.41;4984410;28;19941;-83
2023/12/13 11:03:09;;;;;;;;;;;;;;;4.58;100.00;97903.34;4985424;28;19922;-82
2023/12/13 11:05:34;;;;;;;;;;;;;;;4.57;100.00;97908.66;4984455;28;19925;-90
2023/12/13 11:07:59;;;;;;;;;;;;;;;4.51;100.00;97899.28;4967843;28;19918;-84
2023/12/13 11:10:25;;;;;;;;;;;;;;;4.49;100.00;97899.38;4985791;28;20029;-87
2023/12/13 11:12:51;;;;;;;;;;;;;;;4.49;100.00;97898.53;4985019;28;20453;-83
2023/12/13 11:15:17;;;;;;;;;;;;;;;4.47;100.00;97898.59;4983528;28;20028;-82
2023/12/13 11:17:48;;;;;;;;;;;;;;;4.42;100.00;97897.97;4985250;28;19930;-82
2023/12/13 11:20:14;;;;;;;;;;;;;;;4.39;100.00;97900.75;4985064;28;19933;-86
2023/12/13 11:22:41;;;;;;;;;;;;;;;5.11;100.00;97906.84;4985052;28;19922;-84
2023/12/13 11:25:07;;;;;;;;;;;;;;;5.62;100.00;97899.00;4966887;28;20040;-84
2023/12/13 11:27:32;;;;;;;;;;;;;;;5.87;100.00;97901.16;4984960;28;20428;-81
2023/12/13 11:29:58;;;;;;;;;;;;;;;6.05;100.00;97901.09;4984050;28;19922;-82
2023/12/13 11:32:33;;;;;;;;;;;;;;;6.23;100.00;97900.13;4983264;28;19961;-84
2023/12/13 11:34:58;;;;;;;;;;;;;;;6.33;100.00;97898.69;4984039;28;19926;-83
2023/12/13 11:37:23;;;;;;;;;;;;;;;6.46;100.00;97901.47;4983957;28;19984;-83
2023/12/13 11:39:49;;;;;;;;;;;;;;;6.57;100.00;97903.47;4967564;28;19925;-82
2023/12/13 11:42:15;;;;;;;;;;;;;;;6.64;100.00;97889.06;4984446;28;20297;-84
2023/12/13 11:44:40;;;;;;;;;;;;;;;6.71;100.00;97889.53;4965704;28;19918;-83
2023/12/13 11:47:06;;;;;;;;;;;;;;;6.79;100.00;97889.13;4965827;28;20341;-83
2023/12/13 11:49:32;;;;;;;;;;;;;;;6.87;100.00;97889.50;4984223;28;19926;-83
2023/12/13 11:51:58;;;;;;;;;;;;;;;6.96;100.00;97890.78;4967303;28;20353;-83
2023/12/13 11:54:23;;;;;;;;;;;;;;;6.98;100.00;97896.78;4984346;28;19929;-83
2023/12/13 11:56:48;;;;;;;;;;;;;;;7.06;100.00;97895.41;4966812;28;20281;-85
2023/12/13 11:59:14;;;;;;;;;;;;;;;7.11;100.00;97895.13;4966737;28;19925;-85
2023/12/13 12:01:40;;;;;;;;;;;;;;;7.17;100.00;97896.56;4982588;28;20301;-83
2023/12/13 12:04:05;;;;;;;;;;;;;;;7.19;100.00;97889.41;4966459;28;19925;-83
2023/12/13 12:06:30;;;;;;;;;;;;;;;7.31;100.00;97888.69;4984429;28;19922;-83
2023/12/13 12:08:58;;;;;;;;;;;;;;;7.34;100.00;97882.38;4984650;28;20385;-83
2023/12/13 12:11:24;;;;;;;;;;;;;;;7.39;100.00;97886.44;4966632;28;19922;-83
2023/12/13 12:13:51;;;;;;;;;;;;;;;7.47;100.00;97886.00;4983891;28;19918;-86
2023/12/13 12:16:16;;;;;;;;;;;;;;;7.48;100.00;97873.66;4982782;28;19922;-85
2023/12/13 12:18:42;;;;;;;;;;;;;;;7.51;100.00;97868.19;4966616;28;19948;-84
2023/12/13 12:21:08;;;;;;;;;;;;;;;7.57;100.00;97867.81;4983659;28;19929;-85
2023/12/13 12:23:34;;;;;;;;;;;;;;;7.62;100.00;97865.75;4983788;28;19926;-86
2023/12/13 12:26:04;;;;;;;;;;;;;;;7.66;100.00;97858.50;4982907;28;19922;-83
2023/12/13 12:28:29;;;;;;;;;;;;;;;7.72;100.00;97866.03;4963955;28;19925;-89
2023/12/13 12:30:54;;;;;;;;;;;;;;;7.78;100.00;97860.38;4965546;28;19941;-86
2023/12/13 12:33:19;;;;;;;;;;;;;;;7.79;100.00;97859.44;4964877;28;20409;-87
2023/12/13 12:35:45;;;;;;;;;;;;;;;7.84;100.00;97848.63;4966192;28;19922;-85
2023/12/13 12:38:10;;;;;;;;;;;;;;;7.23;100.00;97848.78;4966554;28;19922;-85
2023/12/13 12:40:35;;;;;;;;;;;;;;;6.44;100.00;97848.06;4983741;28;19922;-81
2023/12/13 12:43:00;;;;;;;;;;;;;;;6.11;100.00;97848.19;4983184;28;19925;-86
2023/12/13 12:45:26;;;;;;;;;;;;;;;5.97;100.00;97846.34;4964820;28;19928;-83
2023/12/13 12:47:51;;;;;;;;;;;;;;;5.78;100.00;97852.56;4983767;28;20345;-82
2023/12/13 12:50:17;;;;;;;;;;;;;;;5.64;100.00;97850.66;4983333;28;19965;-87
2023/12/13 12:52:42;;;;;;;;;;;;;;;5.60;100.00;97843.91;4965757;28;19930;-82
2023/12/13 12:55:07;;;;;;;;;;;;;;;5.53;100.00;97846.94;4983205;28;20365;-81
2023/12/13 12:57:33;;;;;;;;;;;;;;;5.46;100.00;97851.66;4983693;28;20365;-84
2023/12/13 12:59:58;;;;;;;;;;;;;;;5.36;100.00;97850.44;4964489;28;19937;-82
2023/12/13 13:02:23;;;;;;;;;;;;;;;5.33;100.00;97845.34;4962289;28;19977;-81
2023/12/13 13:04:48;;;;;;;;;;;;;;;5.28;100.00;97849.06;4962341;28;19942;-84
2023/12/13 13:07:14;;;;;;;;;;;;;;;5.23;100.00;97852.84;4962351;28;19929;-83
2023/12/13 13:09:41;;;;;;;;;;;;;;;5.18;100.00;97863.59;4978649;28;19926;-84
2023/12/13 13:12:07;;;;;;;;;;;;;;;5.19;100.00;97865.28;4962276;28;19961;-86
2023/12/13 13:14:32;;;;;;;;;;;;;;;5.24;100.00;97868.53;4962467;28;19957;-83
2023/12/13 13:16:57;;;;;;;;;;;;;;;5.21;100.00;97884.44;4960947;28;20024;-82
2023/12/13 13:19:23;;;;;;;;;;;;;;;5.16;100.00;97873.31;4962650;28;19918;-82
2023/12/13 13:21:48;;;;;;;;;;;;;;;5.11;100.00;97872.72;4964323;28;20398;-85
2023/12/13 13:24:13;;;;;;;;;;;;;;;5.04;100.00;97876.56;4963380;28;19919;-88
2023/12/13 13:26:38;;;;;;;;;;;;;;;5.03;100.00;97870.47;4962075;28;19926;-88
2023/12/13 13:29:04;;;;;;;;;;;;;;;5.00;100.00;97870.63;4962628;28;19924;-87
2023/12/13 13:31:29;;;;;;;;;;;;;;;4.98;100.00;97871.63;4962343;28;20009;-80
2023/12/13 13:33:55;;;;;;;;;;;;;;;4.93;100.00;97878.88;4963147;28;19919;-85
2023/12/13 13:36:20;;;;;;;;;;;;;;;4.96;100.00;97871.69;4965289;28;20350;-82
2023/12/13 13:38:45;;;;;;;;;;;;;;;4.93;100.00;97878.88;4964025;28;19919;-82
2023/12/13 13:41:11;;;;;;;;;;;;;;;4.87;100.00;97880.91;4963672;28;19919;-84
2023/12/13 13:43:36;;;;;;;;;;;;;;;4.88;100.00;97872.13;4963127;28;19996;-87
2023/12/13 13:46:01;;;;;;;;;;;;;;;4.89;100.00;97883.44;4962149;28;19977;-82
2023/12/13 13:48:26;;;;;;;;;;;;;;;4.89;100.00;97883.44;4962481;28;19926;-83
2023/12/13 13:50:53;;;;;;;;;;;;;;;4.88;100.00;97887.88;4963275;28;19925;-82
2023/12/13 13:53:18;;;;;;;;;;;;;;;4.89;100.00;97891.31;4963218;28;20016;-82
2023/12/13 13:55:46;;;;;;;;;;;;;;;4.80;100.00;97890.00;4963551;28;20009;-85
2023/12/13 13:58:11;;;;;;;;;;;;;;;4.81;100.00;97902.19;4962072;28;19914;-88
2023/12/13 14:00:37;;;;;;;;;;;;;;;4.80;100.00;97907.53;4962808;28;19919;-84
2023/12/13 14:03:03;;;;;;;;;;;;;;;4.74;100.00;97900.81;4985795;28;19949;-85
2023/12/13 14:05:34;;;;;;;;;;;;;;;4.74;100.00;97892.94;4969266;28;19922;-84
2023/12/13 14:07:59;;;;;;;;;;;;;;;4.73;100.00;97904.34;4985791;28;20013;-85
2023/12/13 14:10:25;;;;;;;;;;;;;;;4.72;100.00;97897.41;4986400;28;20026;-83
2023/12/13 14:12:50;;;;;;;;;;;;;;;4.68;100.00;97901.13;4968656;28;20309;-82
2023/12/13 14:15:15;;;;;;;;;;;;;;;4.68;100.00;97901.13;4967662;28;19987;-88
2023/12/13 14:17:40;;;;;;;;;;;;;;;4.69;100.00;97908.03;4968809;28;20320;-81
2023/12/13 14:20:06;;;;;;;;;;;;;;;4.64;100.00;97904.78;4985991;28;19918;-84
2023/12/13 14:22:31;;;;;;;;;;;;;;;4.66;100.00;97908.19;4985841;28;19926;-87
2023/12/13 14:24:57;;;;;;;;;;;;;;;4.63;100.00;97914.44;4986262;28;19924;-86
2023/12/13 14:27:22;;;;;;;;;;;;;;;4.60;100.00;97906.72;4986256;28;20017;-85
2023/12/13 14:29:47;;;;;;;;;;;;;;;4.68;100.00;97906.34;4964859;28;20012;-84
2023/12/13 14:32:12;;;;;;;;;;;;;;;4.62;100.00;97909.28;4968513;28;20404;-83
2023/12/13 14:34:37;;;;;;;;;;;;;;;4.65;100.00;97906.50;4968265;28;19918;-89
2023/12/13 14:37:03;;;;;;;;;;;;;;;4.61;100.00;97910.19;4985747;28;19968;-83
2023/12/13 14:39:28;;;;;;;;;;;;;;;4.59;100.00;97923.38;4966087;28;20356;-84
2023/12/13 14:41:54;;;;;;;;;;;;;;;4.63;100.00;97921.47;4981217;28;19933;-84
2023/12/13 14:44:19;;;;;;;;;;;;;;;4.77;100.00;97919.03;4984487;28;19965;-85
2023/12/13 14:46:45;;;;;;;;;;;;;;;5.45;100.00;97918.25;4966769;28;20360;-86
2023/12/13 14:49:10;;;;;;;;;;;;;;;5.87;100.00;97930.09;4986061;28;19925;-84
2023/12/13 14:51:36;;;;;;;;;;;;;;;6.14;100.00;97932.16;4968104;28;20047;-85
2023/12/13 14:54:01;;;;;;;;;;;;;;;6.31;100.00;97934.72;4967777;28;19918;-87
2023/12/13 14:56:27;;;;;;;;;;;;;;;6.45;100.00;97933.97;4966236;28;19969;-84
2023/12/13 14:58:52;;;;;;;;;;;;;;;6.57;100.00;97935.06;4985183;28;19929;-88
2023/12/13 15:01:18;;;;;;;;;;;;;;;6.67;100.00;97936.25;4983947;28;20008;-89
2023/12/13 15:03:43;;;;;;;;;;;;;;;6.80;100.00;97946.94;4967961;28;19972;-84
2023/12/13 15:06:09;;;;;;;;;;;;;;;6.85;100.00;97944.88;4985488;28;19914;-82
2023/12/13 15:08:35;;;;;;;;;;;;;;;6.93;100.00;97949.72;4984977;28;19926;-82
2023/12/13 15:11:05;;;;;;;;;;;;;;;6.99;100.00;97946.75;4984349;28;20332;-81
2023/12/13 15:13:31;;;;;;;;;;;;;;;7.06;100.00;97945.44;4984787;28;20087;-84
2023/12/13 15:15:56;;;;;;;;;;;;;;;7.12;100.00;97954.78;4966174;28;19981;-83
2023/12/13 15:18:23;;;;;;;;;;;;;;;7.18;100.00;97956.19;4983961;28;19918;-80
2023/12/13 15:20:48;;;;;;;;;;;;;;;7.23;100.00;97959.44;4984904;28;19925;-80
2023/12/13 15:23:13;;;;;;;;;;;;;;;7.28;100.00;97963.47;4985432;28;19922;-82
2023/12/13 15:25:38;;;;;;;;;;;;;;;7.32;100.00;97965.94;4984973;28;19921;-81
2023/12/13 15:28:06;;;;;;;;;;;;;;;7.35;100.00;97966.59;4984643;28;19922;-90
2023/12/13 15:30:32;;;;;;;;;;;;;;;7.39;100.00;97970.75;4985859;28;20000;-85
2023/12/13 15:32:57;;;;;;;;;;;;;;;7.43;100.00;97972.25;4984856;28;20008;-87
2023/12/13 15:35:22;;;;;;;;;;;;;;;7.50;100.00;97967.50;4984848;28;19918;-85
2023/12/13 15:37:47;;;;;;;;;;;;;;;7.55;100.00;97972.50;4984775;28;19918;-83
2023/12/13 15:40:13;;;;;;;;;;;;;;;7.59;100.00;97971.38;4985214;28;19922;-85
2023/12/13 15:42:38;;;;;;;;;;;;;;;7.62;100.00;97965.91;4984725;28;19937;-85
2023/12/13 15:45:04;;;;;;;;;;;;;;;7.68;100.00;97978.72;4964557;28;20377;-82
2023/12/13 15:47:32;;;;;;;;;;;;;;;7.71;100.00;97975.06;4984285;28;19922;-90
2023/12/13 15:49:59;;;;;;;;;;;;;;;7.77;100.00;97980.81;4983404;28;19922;-80
2023/12/13 15:52:24;;;;;;;;;;;;;;;7.79;100.00;97986.00;4965674;28;19918;-85
2023/12/13 15:54:49;;;;;;;;;;;;;;;7.84;100.00;97997.13;4985406;28;20293;-85
2023/12/13 15:57:14;;;;;;;;;;;;;;;7.85;100.00;97993.56;4966940;28;20459;-83
2023/12/13 15:59:39;;;;;;;;;;;;;;;6.93;100.00;97999.75;4966097;28;19976;-84
2023/12/13 16:02:05;;;;;;;;;;;;;;;6.32;100.00;98001.38;4984234;28;20009;-84
2023/12/13 16:04:31;;;;;;;;;;;;;;;6.10;100.00;97996.41;4984470;28;20377;-84
2023/12/13 16:06:58;;;;;;;;;;;;;;;5.89;100.00;97996.56;4983174;28;19918;-84
2023/12/13 16:09:24;;;;;;;;;;;;;;;5.75;100.00;97992.00;4984415;28;19918;-84
2023/12/13 16:11:49;;;;;;;;;;;;;;;5.68;100.00;98002.91;4966920;28;20056;-83
2023/12/13 16:14:14;;;;;;;;;;;;;;;5.66;100.00;98004.78;4966459;28;19957;-87
2023/12/13 16:16:39;;;;;;;;;;;;;;;5.56;100.00;98010.50;4964967;28;19918;-84
2023/12/13 16:19:07;;;;;;;;;;;;;;;5.48;100.00;98017.91;4966966;28;20012;-87
2023/12/13 16:21:33;;;;;;;;;;;;;;;5.42;100.00;98013.81;4984052;28;19922;-84
2023/12/13 16:23:59;;;;;;;;;;;;;;;5.37;100.00;98015.81;4983187;28;19921;-82
2023/12/13 16:26:24;;;;;;;;;;;;;;;5.32;100.00;98017.84;4982379;28;19973;-86
2023/12/13 16:28:49;;;;;;;;;;;;;;;5.30;100.00;98021.44;4983776;28;19996;-85
2023/12/13 16:31:15;;;;;;;;;;;;;;;5.21;100.00;98028.84;4965331;28;19918;-82
2023/12/13 16:33:48;;;;;;;;;;;;;;;5.20;100.00;98029.81;4964927;28;19922;-85
2023/12/13 16:36:25;;;;;;;;;;;;;;;5.16;100.00;98030.88;4966686;28;19922;-91
2023/12/13 16:38:50;;;;;;;;;;;;;;;5.21;100.00;98041.16;4981727;28;20049;-83
2023/12/13 16:41:17;;;;;;;;;;;;;;;5.13;100.00;98038.88;4983469;28;20017;-80
2023/12/13 16:43:42;;;;;;;;;;;;;;;5.09;100.00;98046.06;4982722;28;19984;-83
2023/12/13 16:46:08;;;;;;;;;;;;;;;5.00;100.00;98045.66;4981657;28;19950;-83
2023/12/13 16:48:34;;;;;;;;;;;;;;;5.05;100.00;98049.75;4983541;28;19926;-89
2023/12/13 16:51:01;;;;;;;;;;;;;;;4.97;100.00;98048.44;4981460;28;19984;-84
2023/12/13 16:53:26;;;;;;;;;;;;;;;4.93;100.00;98057.38;4965907;28;19934;-86
2023/12/13 16:55:51;;;;;;;;;;;;;;;4.96;100.00;98055.44;4983175;28;19925;-84
2023/12/13 16:58:17;;;;;;;;;;;;;;;4.90;100.00;98064.47;4980116;28;19918;-85
2023/12/13 17:00:43;;;;;;;;;;;;;;;11.71;100.00;98057.63;4980982;28;19930;-84
2023/12/13 17:03:08;;;;;;;;;;;;;;;8.04;100.00;98055.72;4982330;28;20366;-87
2023/12/13 17:05:34;;;;;;;;;;;;;;;6.05;100.00;98075.53;4982651;28;19926;-87
2023/12/13 17:07:59;;;;;;;;;;;;;;;5.48;100.00;98078.34;4965974;28;19945;-86
2023/12/13 17:10:27;;;;;;;;;;;;;;;5.25;100.00;98080.31;4981726;28;20388;-86
2023/12/13 17:12:53;;;;;;;;;;;;;;;5.16;100.00;98085.16;4981907;28;19933;-85
2023/12/13 17:15:18;;;;;;;;;;;;;;;5.02;100.00;98083.19;4981412;28;19922;-86
2023/12/13 17:17:43;;;;;;;;;;;;;;;4.91;100.00;98086.31;4983353;28;20369;-85
2023/12/13 17:20:09;;;;;;;;;;;;;;;4.87;100.00;98085.63;4983245;28;20290;-85
2023/12/13 17:22:34;;;;;;;;;;;;;;;4.79;100.00;98082.50;4965520;28;19918;-87
2023/12/13 17:24:59;;;;;;;;;;;;;;;4.80;100.00;98084.19;4983229;28;19921;-85
2023/12/13 17:27:26;;;;;;;;;;;;;;;4.75;100.00;98091.41;4980212;28;19922;-85
2023/12/13 17:29:51;;;;;;;;;;;;;;;4.69;100.00;98091.69;4963906;28;19925;-85
2023/12/13 17:32:17;;;;;;;;;;;;;;;4.70;100.00;98099.50;4982524;28;19922;-83
2023/12/13 17:34:42;;;;;;;;;;;;;;;4.66;100.00;98094.47;4964894;28;19922;-86
2023/12/13 17:37:13;;;;;;;;;;;;;;;4.64;100.00;98101.56;4986887;28;19926;-88
2023/12/13 17:39:41;;;;;;;;;;;;;;;4.60;100.00;98108.72;4983012;28;20296;-88
2023/12/13 17:42:09;;;;;;;;;;;;;;;4.55;100.00;98105.47;4969073;28;19918;-85
2023/12/13 17:44:35;;;;;;;;;;;;;;;4.47;100.00;98112.84;4969416;28;19918;-85
2023/12/13 17:47:00;;;;;;;;;;;;;;;4.53;100.00;98113.41;4983896;28;19918;-85
2023/12/13 17:49:26;;;;;;;;;;;;;;;4.41;100.00;98115.72;4986079;28;19973;-85
2023/12/13 17:51:51;;;;;;;;;;;;;;;4.47;100.00;98126.78;4986594;28;19918;-86
2023/12/13 17:54:16;;;;;;;;;;;;;;;4.38;100.00;98135.06;4985103;28;20446;-85
2023/12/13 17:56:41;;;;;;;;;;;;;;;4.38;100.00;98134.22;4986198;28;19925;-85
2023/12/13 17:59:07;;;;;;;;;;;;;;;4.36;100.00;98136.91;4985564;28;19919;-85
2023/12/13 18:01:32;;;;;;;;;;;;;;;4.31;100.00;98149.38;4985468;28;20282;-85
2023/12/13 18:03:58;;;;;;;;;;;;;;;4.32;100.00;98145.81;4986045;28;20313;-85
2023/12/13 18:06:23;;;;;;;;;;;;;;;4.31;100.00;98154.63;4986794;28;19913;-85
2023/12/13 18:08:48;;;;;;;;;;;;;;;4.26;100.00;98151.31;4986292;28;19934;-86
2023/12/13 18:11:14;;;;;;;;;;;;;;;4.22;100.00;98155.00;4967137;28;19921;-86
2023/12/13 18:13:39;;;;;;;;;;;;;;;4.21;100.00;98158.53;4986409;28;19980;-86
2023/12/13 18:16:04;;;;;;;;;;;;;;;4.28;100.00;98160.00;4984945;28;19925;-85
2023/12/13 18:18:29;;;;;;;;;;;;;;;4.28;100.00;98162.63;4967679;28;19933;-85
2023/12/13 18:20:59;;;;;;;;;;;;;;;4.26;100.00;98161.81;4967977;28;19922;-85
2023/12/13 18:23:24;;;;;;;;;;;;;;;4.23;100.00;98169.78;4985050;28;19926;-85
2023/12/13 18:25:54;;;;;;;;;;;;;;;4.22;100.00;98170.75;4986193;28;19929;-85
2023/12/13 18:28:19;;;;;;;;;;;;;;;4.62;100.00;98163.75;4985477;28;20289;-85
2023/12/13 18:30:45;;;;;;;;;;;;;;;5.26;100.00;98175.69;4985162;28;19925;-86
2023/12/13 18:33:10;;;;;;;;;;;;;;;5.75;100.00;98191.75;4984055;28;19965;-85
2023/12/13 18:35:36;;;;;;;;;;;;;;;6.04;100.00;98191.28;4982965;28;19929;-85
2023/12/13 18:38:02;;;;;;;;;;;;;;;6.22;100.00;98198.25;4984685;28;19928;-86
2023/12/13 18:40:29;;;;;;;;;;;;;;;6.35;100.00;98207.22;4966564;28;19922;-86
2023/12/13 18:42:55;;;;;;;;;;;;;;;6.49;100.00;98208.31;4966857;28;19922;-85
2023/12/13 18:45:20;;;;;;;;;;;;;;;6.57;100.00;98208.75;4983327;28;19976;-86
2023/12/13 18:47:46;;;;;;;;;;;;;;;6.66;100.00;98218.81;4984705;28;19984;-85
2023/12/13 18:50:11;;;;;;;;;;;;;;;6.75;100.00;98221.88;4983670;28;19925;-87
2023/12/13 18:52:36;;;;;;;;;;;;;;;6.82;100.00;98218.03;4984517;28;19961;-86
2023/12/13 18:55:02;;;;;;;;;;;;;;;6.88;100.00;98229.06;4966820;28;20962;-86
2023/12/13 18:57:27;;;;;;;;;;;;;;;6.95;100.00;98228.75;4984956;28;20008;-87
2023/12/13 18:59:53;;;;;;;;;;;;;;;7.01;100.00;98233.69;4983231;28;19918;-85
2023/12/13 19:02:18;;;;;;;;;;;;;;;7.08;100.00;98241.19;4983442;28;20373;-89
2023/12/13 19:04:46;;;;;;;;;;;;;;;7.12;100.00;98241.88;4966379;28;19925;-89
2023/12/13 19:07:11;;;;;;;;;;;;;;;7.16;100.00;98242.56;4967110;28;19926;-88
2023/12/13 19:09:37;;;;;;;;;;;;;;;7.20;100.00;98244.13;4982310;28;20028;-86
2023/12/13 19:12:02;;;;;;;;;;;;;;;7.26;100.00;98241.16;4985309;28;19926;-86
2023/12/13 19:14:27;;;;;;;;;;;;;;;7.28;100.00;98247.19;4984208;28;19949;-86
2023/12/13 19:16:53;;;;;;;;;;;;;;;7.31;100.00;98247.00;4983575;28;19922;-84
2023/12/13 19:19:18;;;;;;;;;;;;;;;7.34;100.00;98252.13;4967522;28;19931;-85
2023/12/13 19:21:43;;;;;;;;;;;;;;;7.38;100.00;98251.00;4967658;28;19917;-84
2023/12/13 19:24:08;;;;;;;;;;;;;;;7.42;100.00;98257.81;4984534;28;19933;-83
2023/12/13 19:26:34;;;;;;;;;;;;;;;7.46;100.00;98263.78;4982706;28;20281;-85
2023/12/13 19:29:00;;;;;;;;;;;;;;;7.51;100.00;98263.53;4966196;28;20056;-83
2023/12/13 19:31:26;;;;;;;;;;;;;;;7.54;100.00;98268.63;4966174;28;20381;-85